Time;durP1;ratioP1;P1;durP2;ratioP2;P2;SDS_P1;SDS_P2;PMS_P1;PMS_P2;Temp;Humidity;BMP_temperature;BMP_pressure;BME280_temperature;BME280_humidity;BME280_pressure;Samples;Min_cycle;Max_cycle;Signal;HPM_P1;HPM_P2
2021/08/01 00:00:44;;;;;;;13.88;8.85;;;16.00;85.30;;;;;;5052936;28;20018;-37
2021/08/01 00:03:09;;;;;;;10.82;8.55;;;16.00;85.60;;;;;;5052921;28;20151;-36
2021/08/01 00:05:35;;;;;;;13.95;9.50;;;15.80;85.90;;;;;;5052927;28;20025;-37
2021/08/01 00:08:01;;;;;;;9.52;8.20;;;15.80;86.10;;;;;;5052765;28;20021;-37
2021/08/01 00:10:26;;;;;;;15.85;8.48;;;15.70;86.70;;;;;;5052855;28;20082;-37
2021/08/01 00:12:52;;;;;;;15.50;9.43;;;15.60;87.20;;;;;;5052769;28;20028;-36
2021/08/01 00:15:18;;;;;;;10.15;8.07;;;15.70;87.10;;;;;;5053012;28;20373;-37
2021/08/01 00:17:43;;;;;;;14.80;9.35;;;15.70;86.80;;;;;;5052875;28;20504;-37
2021/08/01 00:20:09;;;;;;;12.38;9.23;;;15.70;86.50;;;;;;5052676;28;20540;-38
2021/08/01 00:22:35;;;;;;;13.57;9.93;;;15.70;86.80;;;;;;5052550;28;20428;-37
2021/08/01 00:25:01;;;;;;;15.57;10.55;;;15.70;86.80;;;;;;5052451;28;20017;-37
2021/08/01 00:27:26;;;;;;;13.65;11.23;;;15.70;87.00;;;;;;5051127;28;20021;-38
2021/08/01 00:29:52;;;;;;;18.70;11.90;;;15.70;87.10;;;;;;5052140;28;20484;-37
2021/08/01 00:32:17;;;;;;;14.57;11.00;;;15.70;87.00;;;;;;5052360;28;20107;-38
2021/08/01 00:34:43;;;;;;;16.33;11.23;;;15.60;87.40;;;;;;5052123;28;20029;-36
2021/08/01 00:37:09;;;;;;;14.48;11.32;;;15.60;87.60;;;;;;5052791;28;20079;-36
2021/08/01 00:39:34;;;;;;;14.18;10.45;;;15.60;88.10;;;;;;5052455;28;20029;-38
2021/08/01 00:42:00;;;;;;;15.48;10.48;;;15.60;88.00;;;;;;5052123;28;20454;-37
2021/08/01 00:44:25;;;;;;;13.35;10.73;;;15.60;88.10;;;;;;5052355;28;20021;-36
2021/08/01 00:46:51;;;;;;;18.58;12.25;;;15.60;88.10;;;;;;5052523;28;20040;-37
2021/08/01 00:49:17;;;;;;;14.98;11.63;;;15.60;88.40;;;;;;5052104;28;20057;-36
2021/08/01 00:51:43;;;;;;;17.15;13.77;;;15.60;88.40;;;;;;5052392;28;20143;-36
2021/08/01 00:54:08;;;;;;;17.10;12.13;;;15.50;88.60;;;;;;5052379;28;20032;-36
2021/08/01 00:56:34;;;;;;;18.63;12.57;;;15.50;88.60;;;;;;5052030;28;20021;-37
2021/08/01 00:58:59;;;;;;;18.23;13.15;;;15.50;88.80;;;;;;5054122;28;20029;-37
2021/08/01 01:01:36;;;;;;;18.42;12.55;;;15.60;88.60;;;;;;5056340;28;20017;-37
2021/08/01 01:04:17;;;;;;;15.50;12.38;;;15.60;88.60;;;;;;5056645;28;20021;-37
2021/08/01 01:06:57;;;;;;;14.68;11.65;;;15.50;88.60;;;;;;5056124;28;20026;-37
2021/08/01 01:09:55;;;;;;;15.73;11.15;;;15.50;88.60;;;;;;5056004;28;20033;-37
2021/08/01 01:12:24;;;;;;;10.55;9.43;;;15.40;88.40;;;;;;5054885;28;20037;-37
2021/08/01 01:14:53;;;;;;;11.80;9.85;;;15.30;88.80;;;;;;5055932;28;20051;-37
2021/08/01 01:17:29;;;;;;;17.35;11.98;;;15.30;89.00;;;;;;5054427;28;20032;-37
2021/08/01 01:20:13;;;;;;;14.98;10.60;;;15.20;88.80;;;;;;5055819;28;20033;-38
2021/08/01 01:23:02;;;;;;;15.48;10.95;;;15.10;89.10;;;;;;5055914;28;20469;-37
2021/08/01 01:25:31;;;;;;;12.70;10.47;;;15.10;89.40;;;;;;5056177;28;20158;-37
2021/08/01 01:28:23;;;;;;;17.65;11.63;;;15.00;89.70;;;;;;5055882;28;20451;-37
2021/08/01 01:31:07;;;;;;;15.10;10.80;;;15.10;89.70;;;;;;5055814;28;20098;-37
2021/08/01 01:33:35;;;;;;;14.27;10.38;;;15.00;89.90;;;;;;5054785;28;20496;-37
2021/08/01 01:36:05;;;;;;;11.50;9.73;;;15.00;89.80;;;;;;5055888;28;20017;-37
2021/08/01 01:38:31;;;;;;;12.18;10.63;;;15.00;90.10;;;;;;5054409;28;20128;-37
2021/08/01 01:40:58;;;;;;;14.85;11.63;;;15.00;89.90;;;;;;5055891;28;20017;-37
2021/08/01 01:43:25;;;;;;;16.55;11.25;;;14.90;89.80;;;;;;5055695;28;20091;-37
2021/08/01 01:45:55;;;;;;;15.15;12.60;;;15.00;89.90;;;;;;5055436;28;20037;-37
2021/08/01 01:48:21;;;;;;;17.15;12.90;;;15.00;90.10;;;;;;5055615;28;20476;-37
2021/08/01 01:50:47;;;;;;;20.45;13.77;;;15.00;90.20;;;;;;5055647;28;20029;-37
2021/08/01 01:53:14;;;;;;;24.38;15.68;;;15.10;90.50;;;;;;5055389;28;20029;-37
2021/08/01 01:55:42;;;;;;;20.88;14.75;;;15.10;90.70;;;;;;5055701;28;20468;-37
2021/08/01 01:58:11;;;;;;;23.05;15.60;;;15.10;90.80;;;;;;5055578;28;20025;-38
2021/08/01 02:00:37;;;;;;;23.85;16.65;;;15.10;90.70;;;;;;5055499;28;20013;-37
2021/08/01 02:03:03;;;;;;;27.85;18.80;;;15.20;90.60;;;;;;5055431;28;20025;-37
2021/08/01 02:05:28;;;;;;;19.48;15.93;;;15.20;90.20;;;;;;5054062;28;20044;-37
2021/08/01 02:07:54;;;;;;;26.25;17.55;;;15.20;90.10;;;;;;5055125;28;20021;-37
2021/08/01 02:10:37;;;;;;;24.38;18.17;;;15.20;90.40;;;;;;5054454;28;20481;-37
2021/08/01 02:13:05;;;;;;;19.75;16.15;;;15.20;90.50;;;;;;5055274;28;20029;-37
2021/08/01 02:15:51;;;;;;;19.77;12.77;;;15.20;90.50;;;;;;5055027;28;20053;-37
2021/08/01 02:18:27;;;;;;;15.38;10.98;;;15.10;90.10;;;;;;5055219;28;20052;-37
2021/08/01 02:20:55;;;;;;;21.23;14.25;;;15.00;90.20;;;;;;5055018;28;20025;-37
2021/08/01 02:23:26;;;;;;;14.77;12.38;;;15.00;90.50;;;;;;5055041;28;20028;-37
2021/08/01 02:25:53;;;;;;;16.98;13.50;;;14.90;90.30;;;;;;5054965;28;20025;-37
2021/08/01 02:28:22;;;;;;;19.05;12.82;;;15.00;90.60;;;;;;5054948;28;20040;-37
2021/08/01 02:30:47;;;;;;;16.25;12.73;;;15.00;90.00;;;;;;5054595;28;20037;-36
2021/08/01 02:33:14;;;;;;;16.50;12.82;;;14.90;89.70;;;;;;5054860;28;20073;-37
2021/08/01 02:35:40;;;;;;;16.90;12.70;;;14.70;90.10;;;;;;5055012;28;20473;-37
2021/08/01 02:38:07;;;;;;;18.75;12.20;;;14.60;90.70;;;;;;5055102;28;20017;-37
2021/08/01 02:40:36;;;;;;;22.73;15.68;;;14.50;91.20;;;;;;5054781;28;20028;-37
2021/08/01 02:43:05;;;;;;;23.95;16.55;;;14.50;91.50;;;;;;5054938;28;20104;-37
2021/08/01 02:45:34;;;;;;;25.27;15.82;;;14.60;91.90;;;;;;5054894;28;20029;-37
2021/08/01 02:48:02;;;;;;;24.42;16.33;;;14.50;91.90;;;;;;5054848;28;20096;-46
2021/08/01 02:50:31;;;;;;;27.63;17.80;;;14.60;92.20;;;;;;5054505;28;20036;-37
2021/08/01 02:53:03;;;;;;;22.25;17.58;;;14.70;91.70;;;;;;5054688;28;20047;-37
2021/08/01 02:55:32;;;;;;;25.05;18.30;;;14.80;91.40;;;;;;5054412;28;20392;-37
2021/08/01 02:57:58;;;;;;;26.92;19.52;;;15.00;91.20;;;;;;5054405;28;20028;-37
2021/08/01 03:00:24;;;;;;;28.35;17.08;;;15.10;90.60;;;;;;5054365;28;20071;-37
2021/08/01 03:02:52;;;;;;;20.45;16.58;;;15.10;90.70;;;;;;5054562;28;20464;-37
2021/08/01 03:05:18;;;;;;;22.65;16.70;;;15.10;90.80;;;;;;5054257;28;20025;-37
2021/08/01 03:07:45;;;;;;;21.80;17.40;;;15.10;91.10;;;;;;5054267;28;20017;-37
2021/08/01 03:10:13;;;;;;;28.17;16.55;;;15.20;90.30;;;;;;5054422;28;20025;-37
2021/08/01 03:12:43;;;;;;;22.40;16.95;;;15.20;90.40;;;;;;5054062;28;20021;-37
2021/08/01 03:15:09;;;;;;;25.35;17.67;;;15.20;90.30;;;;;;5054072;28;20051;-37
2021/08/01 03:17:35;;;;;;;23.10;17.52;;;15.30;90.20;;;;;;5054008;28;20029;-37
2021/08/01 03:20:01;;;;;;;24.92;16.83;;;15.30;90.10;;;;;;5053854;28;20028;-37
2021/08/01 03:22:26;;;;;;;22.45;17.10;;;15.20;90.30;;;;;;5053493;28;20025;-36
2021/08/01 03:24:52;;;;;;;22.23;16.45;;;15.30;90.60;;;;;;5054186;28;20036;-37
2021/08/01 03:27:17;;;;;;;23.33;18.05;;;15.30;90.60;;;;;;5053879;28;20107;-37
2021/08/01 03:29:43;;;;;;;24.27;18.17;;;15.30;90.10;;;;;;5054084;28;20029;-37
2021/08/01 03:32:09;;;;;;;26.92;18.73;;;15.30;90.40;;;;;;5053792;28;20028;-37
2021/08/01 03:34:34;;;;;;;27.70;18.98;;;15.30;90.40;;;;;;5053919;28;20025;-37
2021/08/01 03:37:00;;;;;;;25.60;18.63;;;15.30;90.50;;;;;;5053556;28;20158;-37
2021/08/01 03:39:25;;;;;;;25.98;18.15;;;15.30;90.50;;;;;;5052868;28;20074;-37
2021/08/01 03:41:51;;;;;;;21.67;18.23;;;15.20;90.40;;;;;;5052218;28;20032;-37
2021/08/01 03:44:16;;;;;;;21.02;15.05;;;15.00;90.80;;;;;;5053742;28;20024;-37
2021/08/01 03:46:42;;;;;;;19.98;16.08;;;14.90;90.90;;;;;;5053440;28;20443;-37
2021/08/01 03:49:08;;;;;;;28.52;18.50;;;14.90;91.30;;;;;;5053400;28;20036;-37
2021/08/01 03:51:33;;;;;;;26.25;17.48;;;14.90;91.60;;;;;;5053638;28;20033;-37
2021/08/01 03:53:59;;;;;;;25.77;19.10;;;15.00;91.20;;;;;;5053613;28;20032;-37
2021/08/01 03:56:25;;;;;;;24.30;18.10;;;15.00;91.10;;;;;;5053443;28;20021;-37
2021/08/01 03:58:50;;;;;;;23.10;15.98;;;15.10;91.00;;;;;;5053246;28;20025;-37
2021/08/01 04:01:16;;;;;;;21.85;17.00;;;15.00;90.90;;;;;;5051930;28;20051;-37
2021/08/01 04:03:42;;;;;;;24.45;16.50;;;15.00;91.10;;;;;;5053441;28;20044;-37
2021/08/01 04:06:08;;;;;;;24.77;17.02;;;15.20;91.10;;;;;;5053923;28;20025;-37
2021/08/01 04:08:34;;;;;;;25.00;16.23;;;15.30;90.30;;;;;;5053138;28;20040;-37
2021/08/01 04:11:08;;;;;;;25.83;17.88;;;15.30;90.10;;;;;;5053329;28;20070;-37
2021/08/01 04:13:34;;;;;;;27.50;19.23;;;15.40;90.00;;;;;;5053328;28;20473;-36
2021/08/01 04:16:00;;;;;;;27.92;18.95;;;15.50;89.80;;;;;;5053082;28;20035;-36
2021/08/01 04:18:28;;;;;;;24.55;17.88;;;15.50;89.40;;;;;;5053242;28;20020;-36
2021/08/01 04:20:53;;;;;;;26.70;19.13;;;15.50;89.60;;;;;;5053076;28;20025;-37
2021/08/01 04:23:19;;;;;;;26.25;17.35;;;15.50;89.80;;;;;;5053193;28;20052;-37
2021/08/01 04:25:45;;;;;;;25.38;18.77;;;15.50;89.70;;;;;;5053110;28;20036;-37
2021/08/01 04:28:10;;;;;;;24.05;18.67;;;15.40;89.50;;;;;;5052860;28;20343;-37
2021/08/01 04:30:36;;;;;;;30.35;19.73;;;15.40;90.10;;;;;;5052626;28;20488;-37
2021/08/01 04:33:01;;;;;;;26.55;18.48;;;15.50;89.80;;;;;;5052775;28;20025;-37
2021/08/01 04:35:27;;;;;;;28.77;19.23;;;15.50;90.10;;;;;;5052970;28;20480;-37
2021/08/01 04:37:53;;;;;;;27.00;19.35;;;15.50;90.30;;;;;;5053331;28;20025;-37
2021/08/01 04:40:18;;;;;;;24.85;18.08;;;15.60;90.20;;;;;;5052486;28;20017;-37
2021/08/01 04:42:44;;;;;;;24.00;17.83;;;15.60;89.90;;;;;;5051147;28;20025;-37
2021/08/01 04:45:10;;;;;;;22.58;18.50;;;15.70;89.70;;;;;;5052271;28;20033;-37
2021/08/01 04:47:35;;;;;;;25.70;19.17;;;15.70;89.60;;;;;;5052732;28;20044;-37
2021/08/01 04:50:01;;;;;;;23.85;16.73;;;15.70;89.60;;;;;;5052671;28;20465;-37
2021/08/01 04:52:27;;;;;;;19.58;15.23;;;15.70;89.40;;;;;;5052629;28;20029;-37
2021/08/01 04:54:52;;;;;;;20.42;15.35;;;15.60;89.80;;;;;;5052421;28;20389;-37
2021/08/01 04:57:18;;;;;;;28.42;17.05;;;15.60;90.00;;;;;;5052290;28;20120;-37
2021/08/01 04:59:43;;;;;;;26.58;18.45;;;15.70;90.00;;;;;;5053123;28;20025;-36
2021/08/01 05:02:09;;;;;;;27.23;18.27;;;15.70;89.90;;;;;;5052172;28;20037;-36
2021/08/01 05:04:34;;;;;;;23.30;16.23;;;15.80;89.50;;;;;;5052258;28;20017;-37
2021/08/01 05:07:00;;;;;;;21.70;15.57;;;15.70;90.00;;;;;;5052260;28;20052;-37
2021/08/01 05:09:26;;;;;;;23.60;17.20;;;15.60;90.60;;;;;;5052445;28;20033;-36
2021/08/01 05:11:51;;;;;;;25.00;17.00;;;15.70;90.50;;;;;;5052416;28;20111;-37
2021/08/01 05:14:17;;;;;;;26.63;18.27;;;15.60;90.50;;;;;;5052089;28;20021;-37
2021/08/01 05:16:43;;;;;;;21.08;17.65;;;15.70;90.30;;;;;;5052046;28;20461;-37
2021/08/01 05:19:08;;;;;;;24.30;16.98;;;15.80;90.10;;;;;;5052212;28;20086;-37
2021/08/01 05:21:34;;;;;;;29.55;17.98;;;16.00;89.40;;;;;;5050745;28;20056;-37
2021/08/01 05:24:00;;;;;;;23.45;16.77;;;16.00;89.30;;;;;;5052096;28;20017;-37
2021/08/01 05:26:26;;;;;;;22.52;16.05;;;16.00;88.90;;;;;;5052169;28;20029;-37
2021/08/01 05:28:51;;;;;;;22.05;16.48;;;16.10;89.30;;;;;;5052022;28;20029;-37
2021/08/01 05:31:17;;;;;;;25.27;16.58;;;16.20;88.90;;;;;;5051964;28;20408;-37
2021/08/01 05:33:43;;;;;;;24.25;17.40;;;16.20;88.90;;;;;;5052238;28;20083;-37
2021/08/01 05:36:09;;;;;;;21.83;16.05;;;16.30;88.70;;;;;;5052138;28;20530;-37
2021/08/01 05:38:37;;;;;;;25.92;16.50;;;16.30;88.70;;;;;;5052680;28;20024;-37
2021/08/01 05:41:03;;;;;;;20.67;15.77;;;16.30;88.70;;;;;;5052116;28;20087;-37
2021/08/01 05:43:29;;;;;;;24.38;16.50;;;16.40;87.80;;;;;;5051871;28;20025;-37
2021/08/01 05:45:55;;;;;;;27.95;16.02;;;16.50;87.60;;;;;;5053562;28;20032;-37
2021/08/01 05:48:21;;;;;;;21.25;14.38;;;16.40;87.90;;;;;;5055744;28;20056;-37
2021/08/01 05:50:46;;;;;;;23.45;15.60;;;16.40;88.40;;;;;;5055754;28;20043;-36
2021/08/01 05:53:12;;;;;;;21.30;14.88;;;16.30;88.10;;;;;;5055699;28;20532;-36
2021/08/01 05:55:37;;;;;;;24.17;16.70;;;16.40;88.50;;;;;;5055717;28;20053;-36
2021/08/01 05:58:03;;;;;;;19.10;15.52;;;16.40;88.10;;;;;;5055296;28;20028;-36
2021/08/01 06:00:29;;;;;;;23.52;14.60;;;16.50;87.70;;;;;;5055558;28;20032;-36
2021/08/01 06:02:54;;;;;;;19.02;14.23;;;16.60;87.30;;;;;;5053933;28;20524;-37
2021/08/01 06:05:20;;;;;;;20.83;14.45;;;16.70;88.20;;;;;;5055319;28;20029;-36
2021/08/01 06:07:46;;;;;;;25.13;15.23;;;16.80;87.00;;;;;;5055631;28;20412;-36
2021/08/01 06:10:12;;;;;;;25.00;16.02;;;17.00;86.60;;;;;;5055275;28;20021;-36
2021/08/01 06:12:38;;;;;;;22.50;15.25;;;17.30;85.40;;;;;;5055199;28;20033;-36
2021/08/01 06:15:04;;;;;;;18.88;14.85;;;17.30;85.10;;;;;;5055175;28;20057;-36
2021/08/01 06:17:29;;;;;;;22.83;18.02;;;16.80;86.00;;;;;;5055270;28;20029;-36
2021/08/01 06:19:56;;;;;;;31.33;22.10;;;17.10;85.10;;;;;;5055064;28;20028;-36
2021/08/01 06:22:23;;;;;;;28.80;18.90;;;17.20;84.00;;;;;;5055551;28;20024;-36
2021/08/01 06:24:48;;;;;;;32.13;26.10;;;17.30;84.00;;;;;;5055076;28;20025;-37
2021/08/01 06:27:14;;;;;;;46.05;29.02;;;17.40;83.40;;;;;;5053709;28;20470;-36
2021/08/01 06:29:40;;;;;;;33.22;27.15;;;17.30;82.30;;;;;;5054930;28;20066;-36
2021/08/01 06:32:05;;;;;;;34.50;26.13;;;17.30;83.00;;;;;;5054752;28;20510;-36
2021/08/01 06:34:31;;;;;;;33.88;23.38;;;17.30;82.70;;;;;;5054794;28;20029;-36
2021/08/01 06:36:57;;;;;;;34.90;25.92;;;17.30;82.50;;;;;;5053349;28;20128;-36
2021/08/01 06:39:22;;;;;;;33.80;25.15;;;17.20;81.50;;;;;;5054853;28;20040;-36
2021/08/01 06:41:48;;;;;;;36.55;23.33;;;17.60;80.80;;;;;;5054700;28;20355;-36
2021/08/01 06:44:14;;;;;;;30.65;21.10;;;17.80;79.60;;;;;;5054598;28;20020;-36
2021/08/01 06:46:40;;;;;;;33.85;21.50;;;17.70;79.60;;;;;;5054697;28;20195;-36
2021/08/01 06:49:05;;;;;;;27.33;22.08;;;17.50;79.90;;;;;;5054910;28;20060;-37
2021/08/01 06:51:31;;;;;;;33.70;21.88;;;17.50;79.50;;;;;;5054543;28;20039;-36
2021/08/01 06:54:04;;;;;;;31.20;21.38;;;17.40;80.80;;;;;;5055051;28;20029;-35
2021/08/01 06:56:33;;;;;;;26.58;19.77;;;17.50;79.60;;;;;;5053142;28;20036;-36
2021/08/01 06:58:58;;;;;;;33.80;20.67;;;17.70;79.70;;;;;;5054984;28;20096;-36
2021/08/01 07:01:24;;;;;;;27.13;19.42;;;18.00;78.30;;;;;;5053142;28;20067;-37
2021/08/01 07:03:50;;;;;;;26.70;20.27;;;18.00;78.00;;;;;;5054571;28;20025;-36
2021/08/01 07:06:16;;;;;;;29.38;18.83;;;17.90;78.40;;;;;;5054353;28;20036;-36
2021/08/01 07:08:41;;;;;;;24.85;18.83;;;18.00;77.70;;;;;;5054235;28;20024;-36
2021/08/01 07:11:07;;;;;;;28.15;20.30;;;17.90;77.60;;;;;;5054597;28;20086;-36
2021/08/01 07:13:33;;;;;;;26.98;21.13;;;17.70;78.30;;;;;;5054378;28;20408;-36
2021/08/01 07:16:03;;;;;;;30.35;21.00;;;18.00;78.30;;;;;;5054256;28;20036;-36
2021/08/01 07:18:28;;;;;;;29.10;19.60;;;17.90;79.00;;;;;;5053991;28;20032;-38
2021/08/01 07:20:54;;;;;;;22.20;17.30;;;17.80;79.60;;;;;;5054180;28;20025;-37
2021/08/01 07:23:20;;;;;;;26.02;17.67;;;18.30;78.40;;;;;;5053944;28;20029;-37
2021/08/01 07:25:45;;;;;;;27.17;20.55;;;18.20;78.70;;;;;;5053840;28;20086;-37
2021/08/01 07:28:11;;;;;;;27.40;19.65;;;18.00;79.00;;;;;;5053852;28;20048;-37
2021/08/01 07:30:37;;;;;;;23.35;18.55;;;18.10;79.40;;;;;;5053731;28;20069;-37
2021/08/01 07:33:02;;;;;;;22.55;17.92;;;17.90;79.00;;;;;;5053903;28;20350;-37
2021/08/01 07:35:28;;;;;;;22.13;17.30;;;18.20;77.80;;;;;;5053517;28;20021;-37
2021/08/01 07:37:54;;;;;;;23.15;18.27;;;18.30;77.20;;;;;;5053945;28;20033;-37
2021/08/01 07:40:19;;;;;;;36.25;18.20;;;18.20;77.40;;;;;;5052303;28;20119;-37
2021/08/01 07:42:45;;;;;;;25.83;18.42;;;18.30;77.10;;;;;;5053590;28;20017;-37
2021/08/01 07:45:22;;;;;;;25.05;17.48;;;18.30;76.70;;;;;;5052009;28;20052;-37
2021/08/01 07:47:48;;;;;;;25.40;19.52;;;18.30;76.60;;;;;;5053347;28;20029;-37
2021/08/01 07:50:13;;;;;;;29.23;20.58;;;18.30;76.40;;;;;;5053679;28;20033;-37
2021/08/01 07:52:39;;;;;;;26.73;19.00;;;18.30;76.20;;;;;;5052464;28;20106;-37
2021/08/01 07:55:06;;;;;;;38.35;20.77;;;18.70;75.50;;;;;;5053344;28;20465;-37
2021/08/01 07:57:32;;;;;;;24.27;19.23;;;18.80;74.80;;;;;;5053561;28;20032;-37
2021/08/01 08:00:02;;;;;;;25.95;19.20;;;19.10;73.60;;;;;;5053237;28;20104;-37
2021/08/01 08:02:27;;;;;;;35.13;20.10;;;19.10;74.20;;;;;;5053227;28;20162;-37
2021/08/01 08:04:53;;;;;;;26.10;17.52;;;19.30;73.00;;;;;;5053479;28;20020;-37
2021/08/01 08:07:20;;;;;;;20.98;15.85;;;19.10;73.70;;;;;;5053034;28;20033;-37
2021/08/01 08:09:46;;;;;;;23.70;17.25;;;18.80;73.90;;;;;;5052913;28;20033;-38
2021/08/01 08:12:12;;;;;;;22.92;15.05;;;18.60;74.70;;;;;;5053040;28;20037;-37
2021/08/01 08:14:38;;;;;;;22.75;12.68;;;19.00;73.20;;;;;;5053242;28;20147;-38
2021/08/01 08:17:04;;;;;;;16.23;11.73;;;19.30;72.10;;;;;;5053805;28;20465;-38
2021/08/01 08:19:30;;;;;;;19.67;11.90;;;19.70;70.00;;;;;;5052830;28;20036;-38
2021/08/01 08:21:56;;;;;;;22.75;13.07;;;19.30;70.60;;;;;;5052986;28;20469;-37
2021/08/01 08:24:22;;;;;;;19.05;13.57;;;19.10;71.90;;;;;;5053184;28;20109;-38
2021/08/01 08:26:48;;;;;;;16.33;11.38;;;19.60;69.90;;;;;;5052739;28;20032;-37
2021/08/01 08:29:15;;;;;;;17.83;11.40;;;19.20;70.60;;;;;;5052515;28;20025;-38
2021/08/01 08:31:44;;;;;;;16.63;9.43;;;19.00;70.60;;;;;;5052312;28;20110;-37
2021/08/01 08:34:09;;;;;;;14.27;10.65;;;19.30;70.00;;;;;;5052617;28;20393;-43
2021/08/01 08:36:35;;;;;;;13.60;10.38;;;19.40;69.10;;;;;;5052676;28;20025;-38
2021/08/01 08:39:01;;;;;;;12.32;11.02;;;19.50;68.30;;;;;;5052767;28;20071;-38
2021/08/01 08:41:27;;;;;;;14.63;11.70;;;19.40;68.70;;;;;;5052616;28;20021;-37
2021/08/01 08:43:53;;;;;;;15.57;11.35;;;19.50;68.40;;;;;;5052967;28;20433;-37
2021/08/01 08:46:19;;;;;;;19.88;10.52;;;19.80;67.50;;;;;;5053122;28;20029;-36
2021/08/01 08:48:45;;;;;;;14.48;9.98;;;19.30;69.20;;;;;;5052702;28;20036;-36
2021/08/01 08:51:11;;;;;;;14.30;9.85;;;19.30;69.40;;;;;;5052558;28;20052;-36
2021/08/01 08:53:46;;;;;;;13.50;9.93;;;19.30;69.10;;;;;;5052388;28;20033;-37
2021/08/01 08:56:14;;;;;;;16.05;8.85;;;19.70;68.20;;;;;;5052667;28;20040;-36
2021/08/01 08:58:40;;;;;;;12.20;9.57;;;19.30;68.70;;;;;;5051673;28;20043;-37
2021/08/01 09:01:06;;;;;;;9.98;8.77;;;19.10;69.00;;;;;;5052576;28;20049;-36
2021/08/01 09:03:32;;;;;;;10.07;7.13;;;19.40;68.20;;;;;;5052504;28;20075;-36
2021/08/01 09:05:59;;;;;;;16.35;6.82;;;20.40;63.60;;;;;;5052676;28;20056;-37
2021/08/01 09:08:25;;;;;;;8.13;6.38;;;20.20;64.70;;;;;;5052231;28;20024;-36
2021/08/01 09:10:53;;;;;;;8.35;5.18;;;20.40;62.70;;;;;;5052823;28;20032;-37
2021/08/01 09:13:43;;;;;;;7.78;4.38;;;21.00;61.00;;;;;;5053332;28;20029;-36
2021/08/01 09:16:10;;;;;;;8.18;4.00;;;21.80;58.90;;;;;;5052084;28;20116;-36
2021/08/01 09:18:35;;;;;;;11.15;4.05;;;21.30;61.00;;;;;;5050765;28;20075;-37
2021/08/01 09:21:01;;;;;;;5.30;3.30;;;20.00;64.40;;;;;;5054028;28;20033;-37
2021/08/01 09:23:26;;;;;;;8.50;3.88;;;19.60;63.70;;;;;;5056221;28;20021;-37
2021/08/01 09:26:04;;;;;;;4.22;2.83;;;20.50;60.20;;;;;;5056153;28;20025;-37
2021/08/01 09:28:30;;;;;;;6.07;3.17;;;21.70;57.00;;;;;;5056348;28;20380;-38
2021/08/01 09:31:01;;;;;;;7.55;3.72;;;22.70;55.60;;;;;;5056025;28;20040;-37
2021/08/01 09:33:35;;;;;;;3.42;2.85;;;21.50;58.80;;;;;;5056175;28;20047;-37
2021/08/01 09:36:04;;;;;;;6.13;2.80;;;22.30;55.80;;;;;;5056048;28;20182;-37
2021/08/01 09:38:58;;;;;;;7.55;3.70;;;22.00;55.50;;;;;;5055991;28;20040;-37
2021/08/01 09:41:35;;;;;;;4.75;3.10;;;21.80;57.80;;;;;;5055680;28;20032;-37
2021/08/01 09:44:18;;;;;;;5.60;3.58;;;21.60;56.80;;;;;;5056344;28;20021;-37
2021/08/01 09:46:48;;;;;;;6.13;3.72;;;20.70;59.40;;;;;;5056067;28;20032;-37
2021/08/01 09:49:19;;;;;;;;;;;21.90;55.50;;;;;;5056250;28;20052;-36
2021/08/01 09:51:48;;;;;;;5.85;3.10;;;20.80;58.60;;;;;;5055717;28;19978;-38
2021/08/01 09:54:16;;;;;;;7.93;3.28;;;21.80;55.60;;;;;;5055710;28;20424;-38
2021/08/01 09:56:58;;;;;;;4.60;3.00;;;21.80;55.80;;;;;;5056135;28;20491;-37
2021/08/01 09:59:29;;;;;;;7.22;3.88;;;21.80;56.20;;;;;;5055660;28;20071;-37
2021/08/01 10:02:00;;;;;;;6.88;3.92;;;21.70;56.10;;;;;;5055326;28;20465;-36
2021/08/01 10:04:37;;;;;;;11.50;3.65;;;22.40;53.50;;;;;;5055344;28;20025;-36
2021/08/01 10:07:16;;;;;;;7.30;4.07;;;22.50;54.00;;;;;;5056021;28;20032;-36
2021/08/01 10:09:48;;;;;;;11.38;5.20;;;22.30;54.20;;;;;;5055180;28;20021;-37
2021/08/01 10:12:14;;;;;;;10.77;5.03;;;21.20;58.50;;;;;;5055489;28;20083;-37
2021/08/01 10:14:42;;;;;;;6.85;4.57;;;20.40;60.40;;;;;;5055066;28;20087;-37
2021/08/01 10:17:08;;;;;;;6.32;4.50;;;21.30;57.90;;;;;;5054961;28;20029;-37
2021/08/01 10:19:35;;;;;;;10.50;5.28;;;22.00;55.30;;;;;;5054880;28;20119;-37
2021/08/01 10:22:03;;;;;;;10.95;6.93;;;22.30;55.80;;;;;;5055277;28;20415;-37
2021/08/01 10:24:31;;;;;;;8.13;6.22;;;22.10;55.90;;;;;;5053508;28;20069;-37
2021/08/01 10:27:03;;;;;;;9.07;5.05;;;21.30;58.90;;;;;;5054919;28;20039;-37
2021/08/01 10:29:51;;;;;;;10.73;5.90;;;21.00;59.90;;;;;;5055253;28;20082;-37
2021/08/01 10:32:20;;;;;;;5.28;4.78;;;20.80;60.60;;;;;;5054426;28;20439;-37
2021/08/01 10:35:12;;;;;;;7.50;4.63;;;21.30;58.20;;;;;;5053309;28;20545;-37
2021/08/01 10:37:59;;;;;;;7.10;4.72;;;21.40;57.80;;;;;;5055233;28;20098;-36
2021/08/01 10:40:26;;;;;;;8.43;5.32;;;21.30;57.70;;;;;;5054744;28;20102;-37
2021/08/01 10:42:57;;;;;;;9.18;5.10;;;20.50;59.60;;;;;;5055056;28;20407;-36
2021/08/01 10:45:23;;;;;;;7.90;5.15;;;20.00;61.40;;;;;;5055022;28;20025;-36
2021/08/01 10:47:53;;;;;;;9.32;5.85;;;19.70;62.50;;;;;;5053226;28;20366;-36
2021/08/01 10:50:23;;;;;;;8.02;5.93;;;20.20;61.40;;;;;;5037559;28;20021;-37
2021/08/01 10:52:49;;;;;;;11.65;6.47;;;19.80;61.90;;;;;;5053731;28;20032;-37
2021/08/01 10:55:24;;;;;;;11.13;7.15;;;20.00;62.50;;;;;;5054400;28;20051;-37
2021/08/01 10:58:12;;;;;;;9.48;6.50;;;20.20;62.00;;;;;;5054350;28;20561;-37
2021/08/01 11:01:03;;;;;;;6.95;6.18;;;20.30;61.00;;;;;;5054696;28;20074;-37
2021/08/01 11:03:30;;;;;;;9.50;6.57;;;20.80;59.80;;;;;;5054473;28;20067;-37
2021/08/01 11:05:57;;;;;;;12.18;7.22;;;20.30;61.20;;;;;;5053393;28;20029;-36
2021/08/01 11:08:23;;;;;;;9.88;5.95;;;19.90;62.40;;;;;;5054510;28;20159;-36
2021/08/01 11:11:09;;;;;;;11.10;6.40;;;20.50;61.10;;;;;;5054457;28;20036;-36
2021/08/01 11:13:47;;;;;;;10.27;6.80;;;19.90;62.50;;;;;;5052640;28;20079;-36
2021/08/01 11:16:33;;;;;;;8.13;5.65;;;19.80;62.50;;;;;;5052744;28;20357;-36
2021/08/01 11:19:02;;;;;;;8.70;5.80;;;20.30;61.30;;;;;;5053861;28;20040;-36
2021/08/01 11:21:39;;;;;;;14.27;6.00;;;20.70;60.20;;;;;;5036609;28;20107;-36
2021/08/01 11:24:09;;;;;;;9.32;6.88;;;20.50;61.00;;;;;;5054061;28;20448;-36
2021/08/01 11:26:36;;;;;;;7.93;7.18;;;20.50;60.70;;;;;;5053987;28;20476;-37
2021/08/01 11:29:08;;;;;;;10.38;7.80;;;21.40;58.40;;;;;;5053726;28;20142;-37
2021/08/01 11:31:34;;;;;;;11.73;6.43;;;21.40;58.00;;;;;;5053393;28;20045;-37
2021/08/01 11:34:20;;;;;;;9.35;5.25;;;22.30;55.40;;;;;;5053261;28;20052;-38
2021/08/01 11:36:46;;;;;;;7.38;5.05;;;23.00;53.30;;;;;;5053529;28;20055;-36
2021/08/01 11:39:14;;;;;;;7.65;5.03;;;21.80;56.80;;;;;;5053371;28;20095;-37
2021/08/01 11:41:42;;;;;;;9.38;4.68;;;20.90;59.10;;;;;;5053296;28;20021;-37
2021/08/01 11:44:14;;;;;;;6.18;4.30;;;20.80;60.40;;;;;;5052963;28;20124;-37
2021/08/01 11:46:55;;;;;;;6.55;4.63;;;21.30;58.20;;;;;;5054061;28;20032;-43
2021/08/01 11:49:43;;;;;;;8.30;5.00;;;21.60;57.40;;;;;;5053527;28;20114;-37
2021/08/01 11:52:09;;;;;;;6.22;5.63;;;21.20;58.10;;;;;;5052979;28;20461;-37
2021/08/01 11:54:41;;;;;;;9.23;5.40;;;20.50;59.50;;;;;;5053792;28;20035;-38
2021/08/01 11:57:12;;;;;;;9.07;4.10;;;20.70;59.40;;;;;;5053348;28;20048;-38
2021/08/01 11:59:39;;;;;;;7.07;4.65;;;20.80;59.00;;;;;;5052228;28;20135;-37
2021/08/01 12:02:16;;;;;;;5.20;4.40;;;21.10;59.20;;;;;;5051489;28;20025;-36
2021/08/01 12:04:56;;;;;;;6.68;4.70;;;20.90;59.30;;;;;;5051828;28;20025;-37
2021/08/01 12:07:37;;;;;;;9.13;4.50;;;22.40;54.90;;;;;;5053155;28;20032;-39
2021/08/01 12:10:12;;;;;;;;;;;23.20;52.00;;;;;;5052185;28;20032;-37
2021/08/01 12:12:37;;;;;;;6.60;3.60;;;23.10;51.50;;;;;;5053126;28;19911;-37
2021/08/01 12:15:03;;;;;;;5.32;3.55;;;23.80;50.00;;;;;;5053228;28;20099;-37
2021/08/01 12:17:35;;;;;;;5.65;3.90;;;25.10;47.10;;;;;;5051602;28;20533;-37
2021/08/01 12:20:00;;;;;;;5.88;3.95;;;25.30;47.20;;;;;;5052766;28;20083;-37
2021/08/01 12:22:26;;;;;;;8.30;5.05;;;25.10;46.90;;;;;;5053089;28;20033;-37
2021/08/01 12:24:56;;;;;;;6.40;3.95;;;24.50;48.00;;;;;;5052640;28;20096;-37
2021/08/01 12:27:28;;;;;;;4.95;3.60;;;23.10;52.10;;;;;;5052533;28;20053;-37
2021/08/01 12:30:05;;;;;;;8.48;4.38;;;23.00;53.00;;;;;;5052548;28;20056;-37
2021/08/01 12:32:36;;;;;;;9.73;4.75;;;23.20;51.40;;;;;;5052797;28;20060;-37
2021/08/01 12:35:14;;;;;;;9.48;4.38;;;23.00;52.50;;;;;;5052509;28;20032;-38
2021/08/01 12:37:43;;;;;;;5.97;4.82;;;22.90;52.80;;;;;;5052769;28;20477;-37
2021/08/01 12:40:10;;;;;;;10.10;4.90;;;22.20;55.10;;;;;;5052377;28;20468;-37